createdAt,value
2018-12-11T00:00:57.856Z,93.21
2018-12-11T00:03:27.773Z,93.36
2018-12-11T00:05:59.043Z,93.42
2018-12-11T00:08:28.984Z,93.58
2018-12-11T00:10:59.262Z,93.60
2018-12-11T00:14:21.974Z,93.27
2018-12-11T00:16:52.016Z,92.98
2018-12-11T00:19:21.906Z,93.05
2018-12-11T00:21:51.766Z,93.74
2018-12-11T00:24:21.576Z,94.24
2018-12-11T00:31:19.876Z,93.95
2018-12-11T00:33:49.812Z,94.48
2018-12-11T00:36:19.653Z,93.90
2018-12-11T00:38:49.480Z,93.98
2018-12-11T00:41:19.450Z,93.89
2018-12-11T00:43:49.387Z,93.77
2018-12-11T00:46:19.513Z,93.92
2018-12-11T00:48:49.512Z,93.81
2018-12-11T00:51:20.046Z,93.79
2018-12-11T00:53:49.816Z,93.45
2018-12-11T00:56:19.590Z,93.43
2018-12-11T00:58:49.522Z,93.12
2018-12-11T01:01:19.456Z,93.25
2018-12-11T01:03:50.106Z,92.99
2018-12-11T01:06:23.092Z,93.31
2018-12-11T01:08:53.814Z,92.83
2018-12-11T01:18:35.764Z,92.58
2018-12-11T01:21:05.651Z,92.49
2018-12-11T01:23:35.476Z,92.53
2018-12-11T01:26:05.340Z,92.64
2018-12-11T01:28:35.162Z,92.81
2018-12-11T01:31:05.883Z,93.11
2018-12-11T01:33:35.743Z,92.13
2018-12-11T01:36:06.019Z,92.29
2018-12-11T01:38:35.923Z,92.31
2018-12-11T01:41:05.830Z,91.94
2018-12-11T01:43:35.780Z,91.72
2018-12-11T01:46:05.655Z,91.83
2018-12-11T01:48:35.481Z,92.13
2018-12-11T01:51:05.318Z,91.94
2018-12-11T01:53:35.285Z,92.29
2018-12-11T01:56:05.130Z,92.70
2018-12-11T01:58:34.939Z,93.75
2018-12-11T02:01:04.802Z,93.67
2018-12-11T02:03:35.617Z,93.71
2018-12-11T02:06:05.557Z,93.93
2018-12-11T02:08:35.471Z,93.75
2018-12-11T02:11:05.333Z,93.52
2018-12-11T02:13:35.199Z,93.43
2018-12-11T02:16:05.101Z,93.36
2018-12-11T02:18:34.975Z,93.44
2018-12-11T02:21:04.801Z,92.96
2018-12-11T02:23:34.784Z,92.61
2018-12-11T02:26:04.596Z,92.66
2018-12-11T02:28:34.547Z,92.99
2018-12-11T02:31:04.399Z,92.68
2018-12-11T02:33:34.758Z,93.32
2018-12-11T02:36:04.683Z,93.39
2018-12-11T02:38:34.555Z,92.75
2018-12-11T02:41:04.416Z,93.21
2018-12-11T02:43:34.796Z,93.17
2018-12-11T02:46:04.671Z,92.86
2018-12-11T02:48:34.761Z,92.61
2018-12-11T02:51:04.589Z,92.26
2018-12-11T02:53:34.686Z,91.99
2018-12-11T02:56:05.264Z,91.78
2018-12-11T02:58:35.059Z,92.45
2018-12-11T03:01:04.862Z,92.43
2018-12-11T03:03:34.687Z,91.94
2018-12-11T03:06:21.863Z,92.29
2018-12-11T03:08:51.633Z,92.57
2018-12-11T03:11:21.938Z,92.92
2018-12-11T03:13:51.859Z,92.99
2018-12-11T03:16:21.696Z,93.14
2018-12-11T03:22:27.319Z,92.53
2018-12-11T03:24:57.233Z,92.44
2018-12-11T03:27:27.129Z,92.36
2018-12-11T03:29:57.000Z,92.74
2018-12-11T03:32:26.945Z,92.35
2018-12-11T03:34:57.082Z,92.25
2018-12-11T03:37:26.937Z,92.57
2018-12-11T03:39:56.735Z,92.27
2018-12-11T03:42:26.545Z,91.45
2018-12-11T03:44:56.349Z,91.60
2018-12-11T03:54:38.337Z,91.70
2018-12-11T03:57:08.332Z,91.70
2018-12-11T03:59:38.111Z,91.82
2018-12-11T04:02:08.451Z,92.11
2018-12-11T04:04:38.303Z,92.48
2018-12-11T04:09:35.046Z,92.48
2018-12-11T04:12:05.931Z,92.52
2018-12-11T04:14:36.606Z,91.70
2018-12-11T04:17:06.855Z,92.00
2018-12-11T04:19:36.784Z,92.18
2018-12-11T04:22:06.697Z,92.15
2018-12-11T04:24:36.488Z,91.87
2018-12-11T04:27:06.253Z,92.15
2018-12-11T04:29:36.029Z,92.05
2018-12-11T04:32:06.228Z,91.99
2018-12-11T04:34:36.074Z,92.05
2018-12-11T04:37:05.898Z,92.38
2018-12-11T04:39:35.748Z,91.87
2018-12-11T04:42:06.537Z,91.61
2018-12-11T04:44:36.570Z,92.07
2018-12-11T04:47:06.841Z,91.73
2018-12-11T04:49:36.644Z,91.82
2018-12-11T04:52:06.412Z,91.97
2018-12-11T04:54:36.330Z,91.64
2018-12-11T04:57:06.310Z,91.80
2018-12-11T04:59:36.688Z,92.14
2018-12-11T05:02:06.821Z,92.19
2018-12-11T05:04:36.663Z,91.52
2018-12-11T05:07:06.474Z,91.56
2018-12-11T05:09:36.250Z,92.26
2018-12-11T05:12:06.074Z,91.90
2018-12-11T05:14:35.924Z,91.84
2018-12-11T05:17:05.744Z,91.90
2018-12-11T05:19:35.719Z,91.49
2018-12-11T05:22:05.572Z,91.79
2018-12-11T05:24:35.330Z,91.48
2018-12-11T05:27:05.140Z,91.38
2018-12-11T05:29:34.960Z,91.78
2018-12-11T05:35:40.848Z,91.39
2018-12-11T05:38:10.648Z,91.12
2018-12-11T05:40:40.486Z,91.15
2018-12-11T05:43:10.390Z,91.49
2018-12-11T05:45:40.194Z,91.48
2018-12-11T05:48:10.146Z,90.93
2018-12-11T05:50:39.930Z,91.69
2018-12-11T05:53:09.783Z,91.58
2018-12-11T05:55:39.709Z,90.93
2018-12-11T05:58:09.594Z,91.24
2018-12-11T06:00:39.932Z,89.94
2018-12-11T06:03:09.858Z,90.75
2018-12-11T06:05:39.732Z,90.38
2018-12-11T06:08:09.508Z,91.68
2018-12-11T06:10:39.812Z,92.36
2018-12-11T06:13:09.934Z,92.75
2018-12-11T06:15:39.736Z,93.09
2018-12-11T06:18:09.640Z,93.02
2018-12-11T06:20:39.500Z,93.05
2018-12-11T06:23:09.384Z,93.17
2018-12-11T06:25:39.258Z,93.63
2018-12-11T06:28:09.067Z,94.79
2018-12-11T06:30:38.953Z,95.54
2018-12-11T06:33:08.793Z,95.81
2018-12-11T06:35:38.709Z,95.38
2018-12-11T06:38:08.557Z,95.32
2018-12-11T06:40:38.442Z,95.39
2018-12-11T06:43:08.354Z,95.26
2018-12-11T06:45:38.145Z,95.26
2018-12-11T06:48:08.006Z,94.99
2018-12-11T06:50:37.813Z,94.55
2018-12-11T06:53:07.791Z,94.84
2018-12-11T06:55:37.551Z,94.21
2018-12-11T06:58:07.453Z,93.23
2018-12-11T07:00:37.327Z,93.06
2018-12-11T07:03:07.268Z,93.12
2018-12-11T07:05:37.145Z,93.28
2018-12-11T07:08:07.329Z,92.99
2018-12-11T07:11:19.205Z,92.86
2018-12-11T07:13:49.010Z,93.14
2018-12-11T07:16:18.826Z,92.58
2018-12-11T07:18:48.676Z,91.94
2018-12-11T07:21:18.446Z,92.28
2018-12-11T07:23:48.339Z,91.90
2018-12-11T07:26:18.497Z,92.10
2018-12-11T07:28:48.605Z,91.44
2018-12-11T07:31:18.350Z,92.17
2018-12-11T07:33:50.782Z,91.93
2018-12-11T07:36:19.986Z,91.86
2018-12-11T07:38:49.871Z,91.92
2018-12-11T07:41:19.718Z,91.74
2018-12-11T07:43:49.768Z,91.07
2018-12-11T07:46:19.570Z,91.67
2018-12-11T07:48:49.565Z,91.55
2018-12-11T07:51:19.429Z,91.15
2018-12-11T07:53:49.264Z,91.55
2018-12-11T07:57:19.906Z,91.34
2018-12-11T07:59:49.914Z,90.54
2018-12-11T08:02:19.706Z,89.92
2018-12-11T08:04:49.588Z,89.91
2018-12-11T08:07:19.382Z,89.52
2018-12-11T08:09:49.259Z,89.47
2018-12-11T08:12:19.138Z,89.66
2018-12-11T08:14:48.897Z,90.08
2018-12-11T08:17:18.739Z,90.29
2018-12-11T08:20:19.350Z,90.25
2018-12-11T08:22:49.175Z,90.58
2018-12-11T08:25:19.440Z,90.16
2018-12-11T08:27:49.264Z,89.30
2018-12-11T08:30:19.852Z,89.67
2018-12-11T08:32:49.732Z,89.89
2018-12-11T08:35:19.559Z,90.36
2018-12-11T08:37:49.392Z,90.35
2018-12-11T08:40:19.352Z,90.49
2018-12-11T08:42:49.780Z,90.42
2018-12-11T08:45:19.817Z,89.68
2018-12-11T08:47:49.569Z,90.61
2018-12-11T08:50:19.441Z,90.54
2018-12-11T08:52:49.361Z,89.68
2018-12-11T08:55:19.173Z,89.82
2018-12-11T08:57:49.509Z,90.09
2018-12-11T09:00:19.365Z,89.97
2018-12-11T09:02:49.181Z,89.86
2018-12-11T09:05:18.954Z,89.20
2018-12-11T09:07:48.840Z,89.50
2018-12-11T09:10:18.986Z,89.15
2018-12-11T09:12:48.961Z,89.19
2018-12-11T09:15:18.757Z,89.39
2018-12-11T09:17:48.647Z,89.48
2018-12-11T09:20:18.412Z,89.91
2018-12-11T09:22:48.320Z,88.81
2018-12-11T09:25:18.518Z,88.72
2018-12-11T09:27:48.300Z,88.70
2018-12-11T09:30:18.073Z,88.11
2018-12-11T09:32:47.879Z,86.52
2018-12-11T09:35:17.774Z,85.59
2018-12-11T09:37:47.585Z,85.15
2018-12-11T09:40:17.399Z,84.43
2018-12-11T09:42:47.269Z,84.66
2018-12-11T09:45:17.683Z,82.24
2018-12-11T09:47:47.462Z,81.81
2018-12-11T09:50:17.273Z,81.92
2018-12-11T09:52:47.053Z,80.77
2018-12-11T09:55:16.919Z,79.74
2018-12-11T09:57:46.808Z,80.09
2018-12-11T10:00:19.276Z,79.97
2018-12-11T10:02:49.134Z,79.25
2018-12-11T10:05:18.967Z,78.87
2018-12-11T10:07:48.744Z,78.63
2018-12-11T10:10:18.559Z,77.32
2018-12-11T10:12:48.410Z,76.50
2018-12-11T10:15:18.538Z,76.09
2018-12-11T10:23:01.014Z,74.07
2018-12-11T10:25:30.888Z,73.96
2018-12-11T10:28:00.722Z,73.79
2018-12-11T10:33:10.852Z,72.96
2018-12-11T10:35:40.656Z,74.41
2018-12-11T10:38:11.252Z,74.64
2018-12-11T10:40:41.104Z,73.72
2018-12-11T10:43:10.889Z,71.85
2018-12-11T10:45:41.289Z,72.49
2018-12-11T10:48:11.067Z,72.55
2018-12-11T10:50:40.851Z,72.63
2018-12-11T10:53:10.746Z,72.13
2018-12-11T10:55:40.591Z,72.27
2018-12-11T10:58:10.898Z,73.39
2018-12-11T11:00:44.741Z,73.03
2018-12-11T11:03:14.687Z,71.99
2018-12-11T11:05:44.490Z,71.75
2018-12-11T11:08:14.329Z,71.15
2018-12-11T11:10:44.459Z,70.90
2018-12-11T11:13:14.293Z,69.87
2018-12-11T11:15:44.074Z,69.56
2018-12-11T11:18:15.006Z,68.05
2018-12-11T11:20:44.797Z,67.64
2018-12-11T11:23:14.722Z,67.42
2018-12-11T11:25:44.528Z,65.40
2018-12-11T11:28:14.344Z,63.03
2018-12-11T11:30:44.205Z,63.17
2018-12-11T11:33:14.027Z,62.04
2018-12-11T11:35:43.984Z,59.81
2018-12-11T11:38:13.880Z,61.57
2018-12-11T11:40:43.624Z,61.86
2018-12-11T11:43:13.721Z,65.60
2018-12-11T11:45:43.528Z,63.35
2018-12-11T11:48:13.507Z,62.25
2018-12-11T11:50:44.343Z,61.87
2018-12-11T11:53:14.615Z,60.73
2018-12-11T11:55:44.437Z,59.28
2018-12-11T11:58:14.295Z,62.21
2018-12-11T12:00:44.651Z,66.78
2018-12-11T12:03:14.473Z,71.21
2018-12-11T12:05:44.311Z,72.94
2018-12-11T12:08:14.097Z,73.43
2018-12-11T12:10:43.851Z,73.47
2018-12-11T12:13:14.177Z,72.97
2018-12-11T12:15:44.037Z,72.73
2018-12-11T12:18:13.833Z,73.60
2018-12-11T12:20:43.620Z,73.40
2018-12-11T12:23:13.740Z,73.76
2018-12-11T12:25:43.532Z,74.13
2018-12-11T12:28:13.322Z,73.58
2018-12-11T12:30:43.960Z,72.21
2018-12-11T12:33:13.760Z,72.94
2018-12-11T12:35:43.920Z,72.19
2018-12-11T12:38:13.978Z,71.82
2018-12-11T12:40:43.737Z,70.62
2018-12-11T12:43:13.486Z,71.18
2018-12-11T12:45:43.287Z,70.71
2018-12-11T12:48:13.065Z,70.19
2018-12-11T12:50:42.844Z,67.93
2018-12-11T12:53:12.652Z,64.86
2018-12-11T12:55:42.474Z,62.46
2018-12-11T12:58:13.637Z,61.36
2018-12-11T13:00:44.951Z,62.22
2018-12-11T13:03:14.950Z,62.40
2018-12-11T13:05:44.708Z,63.14
2018-12-11T13:08:14.671Z,62.46
2018-12-11T13:10:44.430Z,62.64
2018-12-11T13:13:14.396Z,61.31
2018-12-11T13:15:45.180Z,59.45
2018-12-11T13:18:15.118Z,57.05
2018-12-11T13:20:45.137Z,55.03
2018-12-11T13:23:14.985Z,56.92
2018-12-11T13:25:45.698Z,57.89
2018-12-11T13:28:15.511Z,60.17
2018-12-11T13:30:45.404Z,61.25
2018-12-11T13:33:15.253Z,61.48
2018-12-11T13:35:45.385Z,60.55
2018-12-11T13:38:15.208Z,61.50
2018-12-11T13:40:45.417Z,60.87
2018-12-11T13:43:15.265Z,60.50
2018-12-11T13:45:45.185Z,58.65
2018-12-11T13:48:15.714Z,59.09
2018-12-11T13:50:45.951Z,59.85
2018-12-11T13:53:15.795Z,60.78
2018-12-11T13:55:45.965Z,61.73
2018-12-11T13:58:16.439Z,61.45
2018-12-11T14:00:46.663Z,62.20
2018-12-11T14:03:16.508Z,62.62
2018-12-11T14:05:46.291Z,63.13
2018-12-11T14:08:16.066Z,63.40
2018-12-11T14:10:45.985Z,63.54
2018-12-11T14:13:15.771Z,63.92
2018-12-11T14:15:45.552Z,62.67
2018-12-11T14:18:15.407Z,62.95
2018-12-11T14:20:45.182Z,61.08
2018-12-11T14:23:15.019Z,60.41
2018-12-11T14:25:45.125Z,60.18
2018-12-11T14:28:14.931Z,59.73
2018-12-11T14:30:44.884Z,59.59
2018-12-11T14:33:14.684Z,59.26
2018-12-11T14:35:44.922Z,58.89
2018-12-11T14:38:14.718Z,58.77
2018-12-11T14:40:44.606Z,58.95
2018-12-11T14:43:14.589Z,60.17
2018-12-11T14:45:44.728Z,57.80
2018-12-11T14:48:14.586Z,57.30
2018-12-11T14:50:44.398Z,58.38
2018-12-11T14:53:14.196Z,57.86
2018-12-11T14:55:44.628Z,58.80
2018-12-11T14:58:14.382Z,59.81
2018-12-11T15:00:44.170Z,60.38
2018-12-11T15:03:14.639Z,59.69
2018-12-11T15:05:45.328Z,60.15
2018-12-11T15:08:15.509Z,60.49
2018-12-11T15:10:46.142Z,61.01
2018-12-11T15:13:15.969Z,61.19
2018-12-11T15:15:45.742Z,61.88
2018-12-11T15:18:15.548Z,62.87
2018-12-11T15:20:45.391Z,63.42
2018-12-11T15:23:15.218Z,63.91
2018-12-11T15:25:44.994Z,63.92
2018-12-11T15:28:14.745Z,64.50
2018-12-11T15:30:44.479Z,65.26
2018-12-11T15:33:14.252Z,65.41
2018-12-11T15:35:44.154Z,65.99
2018-12-11T15:38:13.940Z,66.15
2018-12-11T15:40:44.126Z,66.54
2018-12-11T15:43:14.722Z,67.41
2018-12-11T15:45:44.497Z,67.71
2018-12-11T15:48:14.256Z,68.09
2018-12-11T15:50:44.033Z,68.26
2018-12-11T15:53:14.208Z,69.27
2018-12-11T15:55:44.053Z,70.02
2018-12-11T15:58:13.827Z,69.90
2018-12-11T16:00:43.670Z,70.07
2018-12-11T16:03:13.444Z,70.30
2018-12-11T16:05:43.390Z,70.24
2018-12-11T16:08:13.176Z,70.19
2018-12-11T16:10:43.060Z,70.72
2018-12-11T16:13:13.048Z,71.40
2018-12-11T16:15:42.940Z,71.59
2018-12-11T16:18:12.733Z,71.97
2018-12-11T16:20:42.480Z,72.13
2018-12-11T16:23:12.264Z,71.36
2018-12-11T16:25:42.284Z,71.80
2018-12-11T16:28:12.062Z,71.90
2018-12-11T16:30:41.790Z,71.70
2018-12-11T16:33:11.923Z,71.70
2018-12-11T16:35:43.083Z,72.19
2018-12-11T16:42:23.590Z,74.63
2018-12-11T16:44:53.387Z,74.77
2018-12-11T16:47:23.226Z,75.32
2018-12-11T16:49:53.011Z,75.62
2018-12-11T16:52:22.991Z,75.43
2018-12-11T16:54:52.843Z,75.95
2018-12-11T16:57:23.620Z,75.89
2018-12-11T16:59:53.403Z,76.32
2018-12-11T17:02:23.155Z,76.62
2018-12-11T17:04:53.098Z,76.92
2018-12-11T17:07:23.604Z,76.71
2018-12-11T17:09:54.070Z,77.17
2018-12-11T17:12:24.410Z,77.25
2018-12-11T17:14:54.975Z,77.31
2018-12-11T17:17:25.673Z,77.70
2018-12-11T17:19:55.555Z,77.72
2018-12-11T17:22:25.310Z,77.48
2018-12-11T17:24:55.216Z,77.63
2018-12-11T17:27:25.043Z,77.82
2018-12-11T17:29:54.973Z,77.80
2018-12-11T17:32:24.831Z,77.95
2018-12-11T17:36:24.547Z,78.63
2018-12-11T17:38:54.350Z,78.58
2018-12-11T17:41:24.204Z,78.97
2018-12-11T17:43:54.036Z,79.10
2018-12-11T17:46:23.809Z,78.84
2018-12-11T17:48:53.756Z,79.13
2018-12-11T17:51:23.679Z,79.40
2018-12-11T17:53:53.484Z,80.00
2018-12-11T17:56:23.352Z,79.90
2018-12-11T17:58:53.221Z,79.22
2018-12-11T18:01:25.315Z,79.55
2018-12-11T18:03:55.245Z,79.34
2018-12-11T18:06:25.171Z,79.51
2018-12-11T18:08:54.988Z,78.91
2018-12-11T18:11:25.000Z,80.07
2018-12-11T18:13:54.771Z,80.50
2018-12-11T18:16:25.011Z,80.68
2018-12-11T18:18:55.213Z,80.50
2018-12-11T18:21:25.369Z,80.39
2018-12-11T18:23:55.265Z,80.57
2018-12-11T18:26:25.236Z,80.37
2018-12-11T18:28:55.127Z,80.88
2018-12-11T18:31:25.421Z,80.69
2018-12-11T18:33:55.433Z,80.59
2018-12-11T18:36:26.790Z,80.92
2018-12-11T18:38:56.659Z,80.29
2018-12-11T18:41:27.101Z,79.50
2018-12-11T18:43:57.136Z,80.15
2018-12-11T18:46:27.063Z,81.25
2018-12-11T18:48:57.495Z,82.49
2018-12-11T18:51:28.193Z,83.44
2018-12-11T18:57:34.491Z,84.82
2018-12-11T19:00:05.634Z,86.35
2018-12-11T19:02:35.844Z,86.98
2018-12-11T19:05:07.022Z,86.74
2018-12-11T19:07:36.856Z,86.43
2018-12-11T19:10:07.794Z,86.28
2018-12-11T19:12:37.562Z,86.32
2018-12-11T19:15:08.981Z,86.55
2018-12-11T19:17:38.770Z,86.36
2018-12-11T19:20:10.085Z,86.37
2018-12-11T19:22:39.861Z,86.82
2018-12-11T19:25:15.930Z,87.66
2018-12-11T19:27:45.950Z,87.59
2018-12-11T19:30:16.329Z,87.71
2018-12-11T19:32:47.178Z,87.22
2018-12-11T19:35:17.474Z,87.06
2018-12-11T19:37:47.452Z,86.70
2018-12-11T19:42:48.273Z,86.75
2018-12-11T19:45:18.965Z,86.93
2018-12-11T19:47:48.902Z,85.86
2018-12-11T19:50:18.772Z,85.55
2018-12-11T19:52:48.711Z,84.22
2018-12-11T19:55:18.667Z,83.75
2018-12-11T19:57:48.584Z,84.32
2018-12-11T20:00:18.603Z,85.07
2018-12-11T20:02:48.615Z,84.58
2018-12-11T20:05:18.903Z,84.34
2018-12-11T20:07:48.972Z,84.29
2018-12-11T20:10:21.058Z,84.09
2018-12-11T20:12:51.053Z,85.06
2018-12-11T20:15:21.019Z,84.46
2018-12-11T20:17:50.888Z,84.48
2018-12-11T20:20:28.309Z,85.07
2018-12-11T20:22:58.616Z,85.03
2018-12-11T20:25:28.717Z,84.60
2018-12-11T20:27:58.761Z,85.12
2018-12-11T20:30:28.751Z,85.37
2018-12-11T20:32:58.692Z,85.50
2018-12-11T20:35:28.635Z,85.03
2018-12-11T20:37:58.796Z,84.81
2018-12-11T20:40:29.635Z,84.11
2018-12-11T20:43:00.494Z,84.69
2018-12-11T20:45:30.456Z,84.66
2018-12-11T20:48:00.600Z,84.87
2018-12-11T20:50:30.904Z,84.32
2018-12-11T20:53:01.028Z,84.74
2018-12-11T20:55:31.201Z,85.25
2018-12-11T20:58:01.128Z,84.85
2018-12-11T21:00:34.115Z,84.50
2018-12-11T21:03:04.544Z,84.85
2018-12-11T21:05:34.344Z,84.56
2018-12-11T21:08:04.227Z,84.37
2018-12-11T21:10:34.330Z,84.74
2018-12-11T21:13:04.527Z,84.35
2018-12-11T21:15:34.292Z,84.33
2018-12-11T21:18:04.052Z,83.70
2018-12-11T21:20:33.868Z,83.80
2018-12-11T21:23:03.681Z,83.85
2018-12-11T21:25:34.058Z,84.25
2018-12-11T21:28:04.181Z,84.27
2018-12-11T21:30:34.296Z,83.33
2018-12-11T21:33:04.131Z,82.77
2018-12-11T21:35:34.249Z,83.18
2018-12-11T21:38:04.096Z,83.97
2018-12-11T21:42:03.423Z,84.73
2018-12-11T21:44:33.751Z,84.41
2018-12-11T21:47:03.933Z,85.17
2018-12-11T21:49:34.241Z,86.72
2018-12-11T21:52:04.358Z,88.40
2018-12-11T21:54:34.277Z,88.92
2018-12-11T21:57:04.093Z,89.24
2018-12-11T21:59:33.971Z,90.17
2018-12-11T22:02:03.783Z,90.50
2018-12-11T22:04:33.597Z,90.14
2018-12-11T22:07:03.476Z,90.51
2018-12-11T22:09:33.257Z,90.67
2018-12-11T22:12:04.302Z,90.64
2018-12-11T22:14:34.069Z,90.24
2018-12-11T22:17:04.370Z,89.43
2018-12-11T22:19:34.199Z,88.44
2018-12-11T22:22:04.060Z,88.82
2018-12-11T22:24:33.861Z,88.09
2018-12-11T22:27:03.688Z,88.67
2018-12-11T22:29:33.641Z,87.79
2018-12-11T22:32:03.443Z,88.06
2018-12-11T22:34:33.402Z,87.66
2018-12-11T22:37:03.434Z,87.46
2018-12-11T22:39:33.327Z,87.67
2018-12-11T22:42:03.314Z,87.03
2018-12-11T22:44:33.600Z,86.56
2018-12-11T22:47:03.659Z,85.59
2018-12-11T22:49:34.181Z,85.56
2018-12-11T22:52:04.180Z,86.06
2018-12-11T22:54:34.565Z,86.38
2018-12-11T22:57:04.759Z,85.48
2018-12-11T22:59:34.664Z,85.87
2018-12-11T23:02:04.619Z,85.86
2018-12-11T23:04:34.595Z,85.86
2018-12-11T23:07:04.801Z,85.56
2018-12-11T23:09:34.917Z,86.45
2018-12-11T23:12:05.026Z,86.30
2018-12-11T23:14:35.273Z,86.14
2018-12-11T23:17:05.097Z,85.77
2018-12-11T23:19:35.169Z,85.93
2018-12-11T23:25:40.825Z,85.74
2018-12-11T23:28:10.835Z,85.64
2018-12-11T23:30:40.631Z,85.86
2018-12-11T23:33:11.136Z,86.21
2018-12-11T23:35:41.214Z,87.19
2018-12-11T23:41:47.438Z,88.28
2018-12-11T23:44:17.286Z,87.72
2018-12-11T23:46:47.177Z,87.86
2018-12-11T23:49:17.000Z,88.44
2018-12-11T23:51:46.894Z,88.28
2018-12-11T23:54:16.926Z,89.24
2018-12-11T23:56:46.742Z,89.73
2018-12-11T23:59:16.630Z,90.26
